createdAt,value
2023-11-22T00:01:38.656Z,2.88
2023-11-22T00:05:06.363Z,2.65
2023-11-22T00:08:35.579Z,3.40
2023-11-22T00:12:01.380Z,3.20
2023-11-22T00:15:27.191Z,2.53
2023-11-22T00:18:52.779Z,2.60
2023-11-22T00:22:18.316Z,2.88
2023-11-22T00:25:43.981Z,2.83
2023-11-22T00:29:09.748Z,2.20
2023-11-22T00:32:35.506Z,2.83
2023-11-22T00:36:05.760Z,2.42
2023-11-22T00:39:31.936Z,2.05
2023-11-22T00:42:57.709Z,2.50
2023-11-22T00:46:23.280Z,2.20
2023-11-22T00:49:48.921Z,2.08
2023-11-22T00:53:16.005Z,2.35
2023-11-22T00:56:42.605Z,2.10
2023-11-22T01:00:12.528Z,2.63
2023-11-22T01:03:38.197Z,2.30
2023-11-22T01:07:05.907Z,2.58
2023-11-22T01:10:31.624Z,1.88
2023-11-22T01:13:58.059Z,2.15
2023-11-22T01:17:25.242Z,2.33
2023-11-22T01:20:50.761Z,2.60
2023-11-22T01:24:16.307Z,2.55
2023-11-22T01:27:42.001Z,2.40
2023-11-22T01:31:08.017Z,2.08
2023-11-22T01:34:33.620Z,2.17
2023-11-22T01:38:00.649Z,2.45
2023-11-22T01:41:26.328Z,2.30
2023-11-22T01:44:53.936Z,2.80
2023-11-22T01:48:19.864Z,2.20
2023-11-22T01:51:46.300Z,2.08
2023-11-22T01:55:11.938Z,2.78
2023-11-22T01:58:37.898Z,2.28
2023-11-22T02:02:05.020Z,2.60
2023-11-22T02:05:30.771Z,2.42
2023-11-22T02:08:57.517Z,2.28
2023-11-22T02:12:23.067Z,2.53
2023-11-22T02:15:48.620Z,2.40
2023-11-22T02:19:18.091Z,2.70
2023-11-22T02:22:48.278Z,2.67
2023-11-22T02:26:14.109Z,2.58
2023-11-22T02:29:39.721Z,2.33
2023-11-22T02:33:08.569Z,3.20
2023-11-22T02:36:34.126Z,3.17
2023-11-22T02:40:02.575Z,2.72
2023-11-22T02:43:28.162Z,2.40
2023-11-22T02:46:54.207Z,2.47
2023-11-22T02:50:20.067Z,3.30
2023-11-22T02:53:47.286Z,2.55
2023-11-22T02:57:13.118Z,2.55
2023-11-22T03:00:42.899Z,2.92
2023-11-22T03:04:08.589Z,2.70
2023-11-22T03:07:35.899Z,2.95
2023-11-22T03:11:03.709Z,2.58
2023-11-22T03:14:30.656Z,2.35
2023-11-22T03:17:57.039Z,2.72
2023-11-22T03:21:22.623Z,2.05
2023-11-22T03:24:48.859Z,2.20
2023-11-22T03:28:15.020Z,2.63
2023-11-22T03:31:40.928Z,2.55
2023-11-22T03:35:07.973Z,2.63
2023-11-22T03:38:34.398Z,2.45
2023-11-22T03:41:59.956Z,2.63
2023-11-22T03:45:25.715Z,2.13
2023-11-22T03:48:52.172Z,2.38
2023-11-22T03:52:17.772Z,2.08
2023-11-22T03:55:43.348Z,2.05
2023-11-22T03:59:09.067Z,2.70
2023-11-22T04:02:34.796Z,1.80
2023-11-22T04:06:00.456Z,2.47
2023-11-22T04:09:26.148Z,2.20
2023-11-22T04:12:51.790Z,2.30
2023-11-22T04:16:18.470Z,3.13
2023-11-22T04:19:44.332Z,2.60
2023-11-22T04:23:15.151Z,3.00
2023-11-22T04:26:41.224Z,2.80
2023-11-22T04:30:14.976Z,3.40
2023-11-22T04:33:41.143Z,3.20
2023-11-22T04:37:07.026Z,3.70
2023-11-22T04:40:32.582Z,3.83
2023-11-22T04:43:58.193Z,4.05
2023-11-22T04:47:23.858Z,4.93
2023-11-22T04:50:49.490Z,5.10
2023-11-22T04:54:15.091Z,5.70
2023-11-22T04:57:41.351Z,5.57
2023-11-22T05:01:07.388Z,4.22
2023-11-22T05:04:32.985Z,4.18
2023-11-22T05:07:58.610Z,4.00
2023-11-22T05:11:24.335Z,4.10
2023-11-22T05:14:50.126Z,3.88
2023-11-22T05:18:15.692Z,4.65
2023-11-22T05:21:41.437Z,4.68
2023-11-22T05:25:08.378Z,4.93
2023-11-22T05:28:35.301Z,5.25
2023-11-22T05:32:01.078Z,5.60
2023-11-22T05:35:26.713Z,5.70
2023-11-22T05:38:52.293Z,5.15
2023-11-22T05:42:19.446Z,5.75
2023-11-22T05:45:45.125Z,6.07
2023-11-22T05:49:12.821Z,6.45
2023-11-22T05:52:38.496Z,7.07
2023-11-22T05:56:06.583Z,6.15
2023-11-22T05:59:33.368Z,6.32
2023-11-22T06:02:59.037Z,5.82
2023-11-22T06:06:24.675Z,5.97
2023-11-22T06:09:50.621Z,5.85
2023-11-22T06:13:16.406Z,6.32
2023-11-22T06:16:42.096Z,5.35
2023-11-22T06:20:08.079Z,5.78
2023-11-22T06:23:34.304Z,6.28
2023-11-22T06:27:00.486Z,6.65
2023-11-22T06:30:26.543Z,6.03
2023-11-22T06:33:53.578Z,5.63
2023-11-22T06:37:19.296Z,5.88
2023-11-22T06:40:45.223Z,5.45
2023-11-22T06:44:13.291Z,5.55
2023-11-22T06:47:39.104Z,5.93
2023-11-22T06:51:05.001Z,9.60
2023-11-22T06:54:30.532Z,7.82
2023-11-22T06:57:56.180Z,7.80
2023-11-22T07:01:24.287Z,6.55
2023-11-22T07:04:50.095Z,7.00
2023-11-22T07:08:18.620Z,4.45
2023-11-22T07:11:45.787Z,4.50
2023-11-22T07:15:11.709Z,4.75
2023-11-22T07:18:38.534Z,5.90
2023-11-22T07:22:05.648Z,6.22
2023-11-22T07:25:31.150Z,7.35
2023-11-22T07:28:56.806Z,5.47
2023-11-22T07:32:22.452Z,6.28
2023-11-22T07:35:48.234Z,5.40
2023-11-22T07:39:14.031Z,5.45
2023-11-22T07:42:39.601Z,5.00
2023-11-22T07:46:14.475Z,4.55
2023-11-22T07:49:43.349Z,4.60
2023-11-22T07:53:10.398Z,3.83
2023-11-22T07:56:36.084Z,5.03
2023-11-22T08:00:02.308Z,4.32
2023-11-22T08:03:37.481Z,6.85
2023-11-22T08:07:03.269Z,4.60
2023-11-22T08:10:29.242Z,5.18
2023-11-22T08:13:58.957Z,4.63
2023-11-22T08:17:27.268Z,4.30
2023-11-22T08:20:53.021Z,6.18
2023-11-22T08:24:20.123Z,5.90
2023-11-22T08:27:45.944Z,4.95
2023-11-22T08:31:11.945Z,4.10
2023-11-22T08:34:38.038Z,4.25
2023-11-22T08:38:04.679Z,4.88
2023-11-22T08:41:31.322Z,4.20
2023-11-22T08:44:57.281Z,3.95
2023-11-22T08:48:22.954Z,4.00
2023-11-22T08:51:49.225Z,4.57
2023-11-22T08:55:16.135Z,4.00
2023-11-22T08:58:41.900Z,4.32
2023-11-22T09:02:09.203Z,3.72
2023-11-22T09:05:35.643Z,3.65
2023-11-22T09:09:02.091Z,3.08
2023-11-22T09:12:28.433Z,3.67
2023-11-22T09:15:54.054Z,3.10
2023-11-22T09:19:20.642Z,3.20
2023-11-22T09:22:49.654Z,3.00
2023-11-22T09:26:26.108Z,3.22
2023-11-22T09:29:51.821Z,3.72
2023-11-22T09:33:18.242Z,5.22
2023-11-22T09:36:45.299Z,6.13
2023-11-22T09:40:11.160Z,6.70
2023-11-22T09:43:36.930Z,7.68
